sensor_id;sensor_type;location;lat;lon;timestamp;temperature;humidity
11423;DHT22;5768;51.476;7.210;2024-02-14T00:00:54;10.00;19.40
11423;DHT22;5768;51.476;7.210;2024-02-14T00:05:57;10.10;19.10
11423;DHT22;5768;51.476;7.210;2024-02-14T00:11:03;10.10;19.20
11423;DHT22;5768;51.476;7.210;2024-02-14T00:16:07;10.00;19.30
11423;DHT22;5768;51.476;7.210;2024-02-14T00:21:10;10.10;19.00
11423;DHT22;5768;51.476;7.210;2024-02-14T00:26:12;10.10;19.00
11423;DHT22;5768;51.476;7.210;2024-02-14T00:31:15;10.00;19.10
11423;DHT22;5768;51.476;7.210;2024-02-14T00:36:17;10.00;19.20
11423;DHT22;5768;51.476;7.210;2024-02-14T00:41:21;10.00;19.70
11423;DHT22;5768;51.476;7.210;2024-02-14T00:46:25;9.80;21.00
11423;DHT22;5768;51.476;7.210;2024-02-14T00:51:28;9.90;20.90
11423;DHT22;5768;51.476;7.210;2024-02-14T00:56:30;10.00;20.70
11423;DHT22;5768;51.476;7.210;2024-02-14T01:01:34;9.80;21.00
11423;DHT22;5768;51.476;7.210;2024-02-14T01:06:36;9.80;21.60
11423;DHT22;5768;51.476;7.210;2024-02-14T01:11:38;9.50;23.10
11423;DHT22;5768;51.476;7.210;2024-02-14T01:16:45;9.40;24.90
11423;DHT22;5768;51.476;7.210;2024-02-14T01:21:47;9.60;25.20
11423;DHT22;5768;51.476;7.210;2024-02-14T01:26:49;9.40;25.40
11423;DHT22;5768;51.476;7.210;2024-02-14T01:31:53;9.50;25.70
11423;DHT22;5768;51.476;7.210;2024-02-14T01:36:56;9.60;25.40
11423;DHT22;5768;51.476;7.210;2024-02-14T01:41:58;9.50;25.90
11423;DHT22;5768;51.476;7.210;2024-02-14T01:47:02;9.50;25.30
11423;DHT22;5768;51.476;7.210;2024-02-14T01:52:06;9.50;25.70
11423;DHT22;5768;51.476;7.210;2024-02-14T01:57:09;9.60;25.60
11423;DHT22;5768;51.476;7.210;2024-02-14T02:02:14;9.80;25.30
11423;DHT22;5768;51.476;7.210;2024-02-14T02:07:17;9.80;24.90
11423;DHT22;5768;51.476;7.210;2024-02-14T02:12:20;9.70;25.30
11423;DHT22;5768;51.476;7.210;2024-02-14T02:17:26;9.70;25.50
11423;DHT22;5768;51.476;7.210;2024-02-14T02:22:28;9.60;26.10
11423;DHT22;5768;51.476;7.210;2024-02-14T02:27:34;9.50;26.40
11423;DHT22;5768;51.476;7.210;2024-02-14T02:32:38;9.40;27.50
11423;DHT22;5768;51.476;7.210;2024-02-14T02:37:40;9.50;27.40
11423;DHT22;5768;51.476;7.210;2024-02-14T02:42:44;9.40;27.20
11423;DHT22;5768;51.476;7.210;2024-02-14T02:47:47;9.40;27.20
11423;DHT22;5768;51.476;7.210;2024-02-14T02:52:51;9.50;26.70
11423;DHT22;5768;51.476;7.210;2024-02-14T02:57:56;9.70;26.30
11423;DHT22;5768;51.476;7.210;2024-02-14T03:02:59;9.80;25.60
11423;DHT22;5768;51.476;7.210;2024-02-14T03:08:03;9.90;25.10
11423;DHT22;5768;51.476;7.210;2024-02-14T03:13:09;9.90;25.30
11423;DHT22;5768;51.476;7.210;2024-02-14T03:18:12;9.90;25.10
11423;DHT22;5768;51.476;7.210;2024-02-14T03:23:14;10.00;24.70
11423;DHT22;5768;51.476;7.210;2024-02-14T03:28:18;10.10;25.60
11423;DHT22;5768;51.476;7.210;2024-02-14T03:33:20;9.90;27.90
11423;DHT22;5768;51.476;7.210;2024-02-14T03:38:26;10.00;27.40
11423;DHT22;5768;51.476;7.210;2024-02-14T03:43:29;10.10;26.40
11423;DHT22;5768;51.476;7.210;2024-02-14T03:48:32;10.10;27.00
11423;DHT22;5768;51.476;7.210;2024-02-14T03:53:35;9.90;29.90
11423;DHT22;5768;51.476;7.210;2024-02-14T03:58:39;9.70;82.60
11423;DHT22;5768;51.476;7.210;2024-02-14T04:03:41;9.90;83.70
11423;DHT22;5768;51.476;7.210;2024-02-14T04:08:44;9.80;84.80
11423;DHT22;5768;51.476;7.210;2024-02-14T04:13:48;9.80;85.90
11423;DHT22;5768;51.476;7.210;2024-02-14T04:18:50;9.90;85.40
11423;DHT22;5768;51.476;7.210;2024-02-14T04:23:54;9.90;85.80
11423;DHT22;5768;51.476;7.210;2024-02-14T04:28:57;10.10;85.00
11423;DHT22;5768;51.476;7.210;2024-02-14T04:33:59;10.00;84.20
11423;DHT22;5768;51.476;7.210;2024-02-14T04:39:02;9.90;85.30
11423;DHT22;5768;51.476;7.210;2024-02-14T04:44:06;9.90;87.00
11423;DHT22;5768;51.476;7.210;2024-02-14T04:49:08;10.20;86.60
11423;DHT22;5768;51.476;7.210;2024-02-14T04:54:11;10.10;90.70
11423;DHT22;5768;51.476;7.210;2024-02-14T04:59:15;10.00;91.50
11423;DHT22;5768;51.476;7.210;2024-02-14T05:04:17;10.00;92.30
11423;DHT22;5768;51.476;7.210;2024-02-14T05:09:23;10.10;89.20
11423;DHT22;5768;51.476;7.210;2024-02-14T05:14:27;10.20;89.80
11423;DHT22;5768;51.476;7.210;2024-02-14T05:19:32;10.30;86.60
11423;DHT22;5768;51.476;7.210;2024-02-14T05:24:34;10.30;85.00
11423;DHT22;5768;51.476;7.210;2024-02-14T05:29:39;10.40;85.80
11423;DHT22;5768;51.476;7.210;2024-02-14T05:34:41;10.40;86.00
11423;DHT22;5768;51.476;7.210;2024-02-14T05:39:43;10.30;90.10
11423;DHT22;5768;51.476;7.210;2024-02-14T05:44:47;10.20;93.90
11423;DHT22;5768;51.476;7.210;2024-02-14T05:49:50;10.20;93.50
11423;DHT22;5768;51.476;7.210;2024-02-14T05:54:52;10.30;93.90
11423;DHT22;5768;51.476;7.210;2024-02-14T05:59:56;10.30;98.20
11423;DHT22;5768;51.476;7.210;2024-02-14T06:04:59;10.20;99.90
11423;DHT22;5768;51.476;7.210;2024-02-14T06:10:01;10.40;98.90
11423;DHT22;5768;51.476;7.210;2024-02-14T06:15:06;10.40;98.00
11423;DHT22;5768;51.476;7.210;2024-02-14T06:20:10;10.20;99.90
11423;DHT22;5768;51.476;7.210;2024-02-14T06:25:13;10.30;99.90
11423;DHT22;5768;51.476;7.210;2024-02-14T06:30:18;10.30;99.90
11423;DHT22;5768;51.476;7.210;2024-02-14T06:35:20;10.40;99.90
11423;DHT22;5768;51.476;7.210;2024-02-14T06:40:22;10.50;99.20
11423;DHT22;5768;51.476;7.210;2024-02-14T06:45:27;10.40;99.90
11423;DHT22;5768;51.476;7.210;2024-02-14T06:50:30;10.40;99.90
11423;DHT22;5768;51.476;7.210;2024-02-14T06:55:35;10.40;99.90
11423;DHT22;5768;51.476;7.210;2024-02-14T07:00:39;10.40;99.90
11423;DHT22;5768;51.476;7.210;2024-02-14T07:05:43;10.40;99.90
11423;DHT22;5768;51.476;7.210;2024-02-14T07:10:47;10.50;99.90
11423;DHT22;5768;51.476;7.210;2024-02-14T07:15:51;10.60;99.90
11423;DHT22;5768;51.476;7.210;2024-02-14T07:20:55;10.60;99.90
11423;DHT22;5768;51.476;7.210;2024-02-14T07:26:05;10.60;99.90
11423;DHT22;5768;51.476;7.210;2024-02-14T07:31:14;10.70;99.90
11423;DHT22;5768;51.476;7.210;2024-02-14T07:36:19;10.60;99.90
11423;DHT22;5768;51.476;7.210;2024-02-14T07:41:22;10.90;99.90
11423;DHT22;5768;51.476;7.210;2024-02-14T07:46:27;10.60;99.90
11423;DHT22;5768;51.476;7.210;2024-02-14T07:51:31;11.00;99.80
11423;DHT22;5768;51.476;7.210;2024-02-14T07:56:37;11.00;99.30
11423;DHT22;5768;51.476;7.210;2024-02-14T08:01:42;10.90;99.60
11423;DHT22;5768;51.476;7.210;2024-02-14T08:06:45;10.70;99.90
11423;DHT22;5768;51.476;7.210;2024-02-14T08:11:49;10.70;99.90
11423;DHT22;5768;51.476;7.210;2024-02-14T08:16:55;10.90;99.90
11423;DHT22;5768;51.476;7.210;2024-02-14T08:21:57;11.00;99.90
11423;DHT22;5768;51.476;7.210;2024-02-14T08:27:06;11.10;99.90
11423;DHT22;5768;51.476;7.210;2024-02-14T08:32:09;11.10;99.90
11423;DHT22;5768;51.476;7.210;2024-02-14T08:37:12;11.30;94.50
11423;DHT22;5768;51.476;7.210;2024-02-14T08:42:14;11.40;92.10
11423;DHT22;5768;51.476;7.210;2024-02-14T08:47:21;11.50;91.30
11423;DHT22;5768;51.476;7.210;2024-02-14T08:52:35;11.50;91.50
11423;DHT22;5768;51.476;7.210;2024-02-14T08:57:38;11.70;88.90
11423;DHT22;5768;51.476;7.210;2024-02-14T09:02:44;11.80;84.80
11423;DHT22;5768;51.476;7.210;2024-02-14T09:07:49;11.50;88.80
11423;DHT22;5768;51.476;7.210;2024-02-14T09:12:51;11.50;88.80
11423;DHT22;5768;51.476;7.210;2024-02-14T09:18:02;11.50;92.10
11423;DHT22;5768;51.476;7.210;2024-02-14T09:23:10;11.70;84.90
11423;DHT22;5768;51.476;7.210;2024-02-14T09:28:22;11.70;88.10
11423;DHT22;5768;51.476;7.210;2024-02-14T09:33:27;12.00;86.40
11423;DHT22;5768;51.476;7.210;2024-02-14T09:38:30;12.00;83.50
11423;DHT22;5768;51.476;7.210;2024-02-14T09:43:36;11.80;82.40
11423;DHT22;5768;51.476;7.210;2024-02-14T09:48:47;11.50;99.80
11423;DHT22;5768;51.476;7.210;2024-02-14T09:53:54;11.30;99.90
11423;DHT22;5768;51.476;7.210;2024-02-14T09:59:05;11.20;99.90
11423;DHT22;5768;51.476;7.210;2024-02-14T10:04:12;11.30;99.90
11423;DHT22;5768;51.476;7.210;2024-02-14T10:09:19;11.50;99.90
11423;DHT22;5768;51.476;7.210;2024-02-14T10:14:28;11.70;99.90
11423;DHT22;5768;51.476;7.210;2024-02-14T10:19:35;12.30;93.70
11423;DHT22;5768;51.476;7.210;2024-02-14T10:24:39;12.20;94.10
11423;DHT22;5768;51.476;7.210;2024-02-14T10:29:45;12.40;92.30
11423;DHT22;5768;51.476;7.210;2024-02-14T10:35:18;12.30;89.50
11423;DHT22;5768;51.476;7.210;2024-02-14T10:40:32;12.40;90.00
11423;DHT22;5768;51.476;7.210;2024-02-14T10:45:43;12.40;85.30
11423;DHT22;5768;51.476;7.210;2024-02-14T10:50:49;12.60;85.90
11423;DHT22;5768;51.476;7.210;2024-02-14T10:55:55;12.80;82.10
11423;DHT22;5768;51.476;7.210;2024-02-14T11:01:00;12.80;86.80
11423;DHT22;5768;51.476;7.210;2024-02-14T11:06:05;12.60;86.80
11423;DHT22;5768;51.476;7.210;2024-02-14T11:11:07;12.90;88.40
11423;DHT22;5768;51.476;7.210;2024-02-14T11:16:10;12.90;85.80
11423;DHT22;5768;51.476;7.210;2024-02-14T11:21:17;12.90;88.70
11423;DHT22;5768;51.476;7.210;2024-02-14T11:26:20;12.80;87.10
11423;DHT22;5768;51.476;7.210;2024-02-14T11:31:32;12.90;86.10
11423;DHT22;5768;51.476;7.210;2024-02-14T11:36:41;12.80;88.40
11423;DHT22;5768;51.476;7.210;2024-02-14T11:41:45;12.90;86.90
11423;DHT22;5768;51.476;7.210;2024-02-14T11:46:49;12.70;87.40
11423;DHT22;5768;51.476;7.210;2024-02-14T11:51:53;12.60;90.00
11423;DHT22;5768;51.476;7.210;2024-02-14T11:57:01;12.60;89.80
11423;DHT22;5768;51.476;7.210;2024-02-14T12:02:05;12.80;86.00
11423;DHT22;5768;51.476;7.210;2024-02-14T12:07:09;12.90;87.20
11423;DHT22;5768;51.476;7.210;2024-02-14T12:12:11;13.10;83.20
11423;DHT22;5768;51.476;7.210;2024-02-14T12:17:17;13.10;84.70
11423;DHT22;5768;51.476;7.210;2024-02-14T12:22:23;13.10;86.80
11423;DHT22;5768;51.476;7.210;2024-02-14T12:27:26;13.10;86.80
11423;DHT22;5768;51.476;7.210;2024-02-14T12:32:29;13.00;87.10
11423;DHT22;5768;51.476;7.210;2024-02-14T12:37:33;12.70;89.60
11423;DHT22;5768;51.476;7.210;2024-02-14T12:42:35;13.00;91.50
11423;DHT22;5768;51.476;7.210;2024-02-14T12:47:38;12.90;94.70
11423;DHT22;5768;51.476;7.210;2024-02-14T12:52:48;13.00;93.50
11423;DHT22;5768;51.476;7.210;2024-02-14T12:57:51;12.90;97.60
11423;DHT22;5768;51.476;7.210;2024-02-14T13:02:53;12.90;95.20
11423;DHT22;5768;51.476;7.210;2024-02-14T13:07:57;13.10;97.50
11423;DHT22;5768;51.476;7.210;2024-02-14T13:13:01;13.30;93.30
11423;DHT22;5768;51.476;7.210;2024-02-14T13:18:03;13.50;89.20
11423;DHT22;5768;51.476;7.210;2024-02-14T13:23:10;13.40;91.50
11423;DHT22;5768;51.476;7.210;2024-02-14T13:28:15;13.40;92.20
11423;DHT22;5768;51.476;7.210;2024-02-14T13:33:17;13.00;96.50
11423;DHT22;5768;51.476;7.210;2024-02-14T13:38:21;13.20;97.60
11423;DHT22;5768;51.476;7.210;2024-02-14T13:43:23;13.30;95.10
11423;DHT22;5768;51.476;7.210;2024-02-14T13:48:26;13.40;89.40
11423;DHT22;5768;51.476;7.210;2024-02-14T13:53:30;13.10;92.30
11423;DHT22;5768;51.476;7.210;2024-02-14T13:58:35;13.10;94.60
11423;DHT22;5768;51.476;7.210;2024-02-14T14:03:39;13.20;91.90
11423;DHT22;5768;51.476;7.210;2024-02-14T14:08:43;13.20;91.40
11423;DHT22;5768;51.476;7.210;2024-02-14T14:13:46;13.20;92.30
11423;DHT22;5768;51.476;7.210;2024-02-14T14:18:49;13.20;93.80
11423;DHT22;5768;51.476;7.210;2024-02-14T14:23:52;13.30;91.60
11423;DHT22;5768;51.476;7.210;2024-02-14T14:28:54;13.50;90.50
11423;DHT22;5768;51.476;7.210;2024-02-14T14:34:00;13.40;90.00
11423;DHT22;5768;51.476;7.210;2024-02-14T14:39:04;13.30;90.20
11423;DHT22;5768;51.476;7.210;2024-02-14T14:44:06;13.30;91.70
11423;DHT22;5768;51.476;7.210;2024-02-14T14:49:12;13.30;89.50
11423;DHT22;5768;51.476;7.210;2024-02-14T14:54:16;13.20;94.30
11423;DHT22;5768;51.476;7.210;2024-02-14T14:59:18;13.10;96.20
11423;DHT22;5768;51.476;7.210;2024-02-14T15:04:20;13.20;95.90
11423;DHT22;5768;51.476;7.210;2024-02-14T15:09:24;13.20;96.50
11423;DHT22;5768;51.476;7.210;2024-02-14T15:14:29;13.00;99.90
11423;DHT22;5768;51.476;7.210;2024-02-14T15:19:32;13.20;99.90
11423;DHT22;5768;51.476;7.210;2024-02-14T15:24:37;13.10;99.90
11423;DHT22;5768;51.476;7.210;2024-02-14T15:29:41;12.90;99.90
11423;DHT22;5768;51.476;7.210;2024-02-14T15:35:01;12.90;99.90
11423;DHT22;5768;51.476;7.210;2024-02-14T15:40:07;12.90;99.90
11423;DHT22;5768;51.476;7.210;2024-02-14T15:45:10;12.70;99.90
11423;DHT22;5768;51.476;7.210;2024-02-14T15:50:15;12.70;99.90
11423;DHT22;5768;51.476;7.210;2024-02-14T15:55:21;12.60;99.90
11423;DHT22;5768;51.476;7.210;2024-02-14T16:00:24;12.60;99.90
11423;DHT22;5768;51.476;7.210;2024-02-14T16:05:28;12.50;99.90
11423;DHT22;5768;51.476;7.210;2024-02-14T16:10:32;12.50;99.90
11423;DHT22;5768;51.476;7.210;2024-02-14T16:15:35;12.60;99.90
11423;DHT22;5768;51.476;7.210;2024-02-14T16:20:37;12.60;99.90
11423;DHT22;5768;51.476;7.210;2024-02-14T16:25:45;12.60;99.90
11423;DHT22;5768;51.476;7.210;2024-02-14T16:30:51;12.50;99.90
11423;DHT22;5768;51.476;7.210;2024-02-14T16:35:58;12.60;99.90
11423;DHT22;5768;51.476;7.210;2024-02-14T16:41:02;12.70;99.90
11423;DHT22;5768;51.476;7.210;2024-02-14T16:46:04;12.60;99.90
11423;DHT22;5768;51.476;7.210;2024-02-14T16:51:07;12.70;99.90
11423;DHT22;5768;51.476;7.210;2024-02-14T16:56:15;12.70;99.90
11423;DHT22;5768;51.476;7.210;2024-02-14T17:01:20;12.70;99.90
11423;DHT22;5768;51.476;7.210;2024-02-14T17:06:23;12.80;99.90
11423;DHT22;5768;51.476;7.210;2024-02-14T17:11:28;12.70;99.90
11423;DHT22;5768;51.476;7.210;2024-02-14T17:16:30;12.70;99.90
11423;DHT22;5768;51.476;7.210;2024-02-14T17:21:33;12.80;99.90
11423;DHT22;5768;51.476;7.210;2024-02-14T17:26:36;12.70;99.90
11423;DHT22;5768;51.476;7.210;2024-02-14T17:31:39;12.60;99.90
11423;DHT22;5768;51.476;7.210;2024-02-14T17:36:43;12.60;99.90
11423;DHT22;5768;51.476;7.210;2024-02-14T17:41:47;12.50;99.90
11423;DHT22;5768;51.476;7.210;2024-02-14T17:46:50;12.60;99.90
11423;DHT22;5768;51.476;7.210;2024-02-14T17:51:52;12.60;99.90
11423;DHT22;5768;51.476;7.210;2024-02-14T17:56:56;12.70;99.90
11423;DHT22;5768;51.476;7.210;2024-02-14T18:02:01;12.60;99.90
11423;DHT22;5768;51.476;7.210;2024-02-14T18:07:04;12.60;99.90
11423;DHT22;5768;51.476;7.210;2024-02-14T18:12:08;12.70;99.90
11423;DHT22;5768;51.476;7.210;2024-02-14T18:17:10;12.70;99.90
11423;DHT22;5768;51.476;7.210;2024-02-14T18:22:12;12.60;99.90
11423;DHT22;5768;51.476;7.210;2024-02-14T18:27:16;12.60;99.90
11423;DHT22;5768;51.476;7.210;2024-02-14T18:32:20;12.60;99.90
11423;DHT22;5768;51.476;7.210;2024-02-14T18:37:23;12.70;99.90
11423;DHT22;5768;51.476;7.210;2024-02-14T18:42:27;12.60;99.90
11423;DHT22;5768;51.476;7.210;2024-02-14T18:47:30;12.70;99.90
11423;DHT22;5768;51.476;7.210;2024-02-14T18:52:32;12.70;99.90
11423;DHT22;5768;51.476;7.210;2024-02-14T18:57:37;12.60;99.90
11423;DHT22;5768;51.476;7.210;2024-02-14T19:02:39;12.70;99.90
11423;DHT22;5768;51.476;7.210;2024-02-14T19:07:43;12.50;99.90
11423;DHT22;5768;51.476;7.210;2024-02-14T19:12:46;12.50;99.90
11423;DHT22;5768;51.476;7.210;2024-02-14T19:17:49;12.40;99.90
11423;DHT22;5768;51.476;7.210;2024-02-14T19:22:54;12.40;99.90
11423;DHT22;5768;51.476;7.210;2024-02-14T19:27:59;12.30;99.90
11423;DHT22;5768;51.476;7.210;2024-02-14T19:33:01;12.50;99.90
11423;DHT22;5768;51.476;7.210;2024-02-14T19:38:03;12.50;99.90
11423;DHT22;5768;51.476;7.210;2024-02-14T19:43:06;12.50;99.90
11423;DHT22;5768;51.476;7.210;2024-02-14T19:48:08;12.60;99.90
11423;DHT22;5768;51.476;7.210;2024-02-14T19:53:11;12.50;99.90
11423;DHT22;5768;51.476;7.210;2024-02-14T19:58:15;12.60;99.90
11423;DHT22;5768;51.476;7.210;2024-02-14T20:03:18;12.60;99.90
11423;DHT22;5768;51.476;7.210;2024-02-14T20:08:20;12.60;99.90
11423;DHT22;5768;51.476;7.210;2024-02-14T20:13:27;12.70;99.90
11423;DHT22;5768;51.476;7.210;2024-02-14T20:18:29;12.70;99.90
11423;DHT22;5768;51.476;7.210;2024-02-14T20:23:32;12.80;99.90
11423;DHT22;5768;51.476;7.210;2024-02-14T20:28:36;12.80;99.90
11423;DHT22;5768;51.476;7.210;2024-02-14T20:33:41;12.80;99.90
11423;DHT22;5768;51.476;7.210;2024-02-14T20:38:43;12.80;99.90
11423;DHT22;5768;51.476;7.210;2024-02-14T20:43:47;12.90;99.90
11423;DHT22;5768;51.476;7.210;2024-02-14T20:48:49;12.90;99.90
11423;DHT22;5768;51.476;7.210;2024-02-14T20:53:55;12.90;99.90
11423;DHT22;5768;51.476;7.210;2024-02-14T20:58:59;12.90;99.90
11423;DHT22;5768;51.476;7.210;2024-02-14T21:04:03;12.90;99.90
11423;DHT22;5768;51.476;7.210;2024-02-14T21:09:05;12.70;99.90
11423;DHT22;5768;51.476;7.210;2024-02-14T21:14:11;12.80;99.90
11423;DHT22;5768;51.476;7.210;2024-02-14T21:19:13;12.90;99.90
11423;DHT22;5768;51.476;7.210;2024-02-14T21:24:15;13.00;99.90
11423;DHT22;5768;51.476;7.210;2024-02-14T21:29:19;12.90;99.90
11423;DHT22;5768;51.476;7.210;2024-02-14T21:34:21;12.90;99.90
11423;DHT22;5768;51.476;7.210;2024-02-14T21:39:24;13.00;99.90
11423;DHT22;5768;51.476;7.210;2024-02-14T21:44:27;13.10;99.90
11423;DHT22;5768;51.476;7.210;2024-02-14T21:49:31;13.10;99.90
11423;DHT22;5768;51.476;7.210;2024-02-14T21:54:34;12.90;99.90
11423;DHT22;5768;51.476;7.210;2024-02-14T21:59:38;13.00;99.90
11423;DHT22;5768;51.476;7.210;2024-02-14T22:04:40;13.00;99.90
11423;DHT22;5768;51.476;7.210;2024-02-14T22:09:42;13.00;99.90
11423;DHT22;5768;51.476;7.210;2024-02-14T22:14:45;13.00;99.90
11423;DHT22;5768;51.476;7.210;2024-02-14T22:19:48;13.10;99.90
11423;DHT22;5768;51.476;7.210;2024-02-14T22:24:50;13.00;99.90
11423;DHT22;5768;51.476;7.210;2024-02-14T22:30:11;13.00;99.90
11423;DHT22;5768;51.476;7.210;2024-02-14T22:35:14;12.90;99.90
11423;DHT22;5768;51.476;7.210;2024-02-14T22:40:17;13.00;99.90
11423;DHT22;5768;51.476;7.210;2024-02-14T22:45:22;12.90;99.90
11423;DHT22;5768;51.476;7.210;2024-02-14T22:50:27;12.80;99.90
11423;DHT22;5768;51.476;7.210;2024-02-14T22:55:29;12.60;99.90
11423;DHT22;5768;51.476;7.210;2024-02-14T23:00:37;12.80;99.90
11423;DHT22;5768;51.476;7.210;2024-02-14T23:05:39;12.90;99.90
11423;DHT22;5768;51.476;7.210;2024-02-14T23:10:42;12.70;99.90
11423;DHT22;5768;51.476;7.210;2024-02-14T23:15:45;12.50;99.90
11423;DHT22;5768;51.476;7.210;2024-02-14T23:20:52;12.50;99.90
11423;DHT22;5768;51.476;7.210;2024-02-14T23:25:54;12.50;99.90
11423;DHT22;5768;51.476;7.210;2024-02-14T23:30:57;12.60;99.90
11423;DHT22;5768;51.476;7.210;2024-02-14T23:36:01;12.70;99.90
11423;DHT22;5768;51.476;7.210;2024-02-14T23:41:03;12.70;99.90
11423;DHT22;5768;51.476;7.210;2024-02-14T23:46:07;12.80;99.90
11423;DHT22;5768;51.476;7.210;2024-02-14T23:51:09;12.70;99.90
11423;DHT22;5768;51.476;7.210;2024-02-14T23:56:11;12.80;99.90
